createdAt,value
2022-10-01T00:02:02.512Z,14.60
2022-10-01T00:04:29.229Z,14.27
2022-10-01T00:06:59.167Z,14.15
2022-10-01T00:09:26.447Z,14.36
2022-10-01T00:11:53.607Z,14.44
2022-10-01T00:14:20.647Z,14.48
2022-10-01T00:16:47.342Z,14.01
2022-10-01T00:19:15.065Z,14.41
2022-10-01T00:21:42.324Z,13.94
2022-10-01T00:24:12.451Z,14.43
2022-10-01T00:26:39.538Z,14.06
2022-10-01T00:29:10.295Z,14.43
2022-10-01T00:31:39.559Z,14.88
2022-10-01T00:34:06.592Z,14.85
2022-10-01T00:36:34.338Z,14.60
2022-10-01T00:39:01.921Z,14.07
2022-10-01T00:41:31.946Z,14.53
2022-10-01T00:44:02.855Z,14.38
2022-10-01T00:46:39.015Z,14.68
2022-10-01T00:49:11.381Z,14.51
2022-10-01T00:51:43.887Z,14.58
2022-10-01T00:54:14.522Z,14.78
2022-10-01T00:56:43.376Z,14.56
2022-10-01T00:59:12.152Z,14.74
2022-10-01T01:01:39.344Z,14.22
2022-10-01T01:04:16.487Z,14.36
2022-10-01T01:06:53.734Z,14.90
2022-10-01T01:09:21.352Z,14.23
2022-10-01T01:12:14.775Z,14.13
2022-10-01T01:15:04.814Z,14.14
2022-10-01T01:18:02.250Z,14.83
2022-10-01T01:21:00.621Z,14.37
2022-10-01T01:24:01.567Z,14.56
2022-10-01T01:27:06.133Z,14.81
2022-10-01T01:29:49.923Z,15.18
2022-10-01T01:32:28.343Z,14.45
2022-10-01T01:34:57.718Z,14.67
2022-10-01T01:37:28.461Z,14.37
2022-10-01T01:39:58.621Z,14.82
2022-10-01T01:42:31.276Z,14.84
2022-10-01T01:45:00.979Z,14.67
2022-10-01T01:47:30.500Z,14.79
2022-10-01T01:49:58.461Z,14.83
2022-10-01T01:52:25.064Z,14.82
2022-10-01T01:54:51.711Z,14.24
2022-10-01T01:57:20.213Z,14.79
2022-10-01T01:59:47.106Z,14.96
2022-10-01T02:02:28.704Z,14.82
2022-10-01T02:05:03.500Z,14.74
2022-10-01T02:07:38.375Z,14.59
2022-10-01T02:10:21.912Z,14.47
2022-10-01T02:13:04.768Z,14.59
2022-10-01T02:15:52.286Z,14.46
2022-10-01T02:18:42.089Z,14.16
2022-10-01T02:21:38.484Z,14.93
2022-10-01T02:24:21.312Z,14.52
2022-10-01T02:26:50.890Z,15.19
2022-10-01T02:29:21.689Z,14.77
2022-10-01T02:31:53.378Z,14.72
2022-10-01T02:34:21.954Z,14.97
2022-10-01T02:36:50.335Z,15.15
2022-10-01T02:39:19.064Z,15.02
2022-10-01T02:41:52.631Z,15.16
2022-10-01T02:44:24.033Z,14.43
2022-10-01T02:47:07.827Z,14.62
2022-10-01T02:49:36.853Z,14.54
2022-10-01T02:52:25.332Z,14.50
2022-10-01T02:54:59.402Z,14.35
2022-10-01T02:57:29.660Z,15.42
2022-10-01T02:59:59.826Z,14.70
2022-10-01T03:02:29.073Z,15.29
2022-10-01T03:04:57.472Z,15.21
2022-10-01T03:07:29.970Z,14.49
2022-10-01T03:09:57.161Z,14.62
2022-10-01T03:12:23.862Z,14.84
2022-10-01T03:14:50.471Z,15.30
2022-10-01T03:17:17.745Z,15.42
2022-10-01T03:19:44.597Z,15.00
2022-10-01T03:22:18.121Z,15.08
2022-10-01T03:24:44.832Z,14.82
2022-10-01T03:27:11.346Z,14.99
2022-10-01T03:29:37.951Z,15.30
2022-10-01T03:32:04.505Z,14.46
2022-10-01T03:34:31.023Z,15.08
2022-10-01T03:36:57.559Z,15.22
2022-10-01T03:39:24.376Z,15.06
2022-10-01T03:41:50.986Z,15.24
2022-10-01T03:44:17.791Z,15.04
2022-10-01T03:46:44.446Z,15.39
2022-10-01T03:49:11.057Z,15.38
2022-10-01T03:51:37.969Z,14.88
2022-10-01T03:54:06.648Z,15.76
2022-10-01T03:56:33.971Z,15.54
2022-10-01T03:59:00.679Z,15.32
2022-10-01T04:01:27.515Z,15.30
2022-10-01T04:03:54.377Z,15.36
2022-10-01T04:06:20.882Z,14.96
2022-10-01T04:08:47.591Z,15.40
2022-10-01T04:11:14.304Z,14.93
2022-10-01T04:13:41.065Z,14.93
2022-10-01T04:16:08.363Z,15.34
2022-10-01T04:18:35.178Z,14.67
2022-10-01T04:21:01.822Z,15.36
2022-10-01T04:23:28.491Z,14.96
2022-10-01T04:25:57.967Z,15.56
2022-10-01T04:28:24.516Z,15.36
2022-10-01T04:31:11.138Z,14.89
2022-10-01T04:33:37.658Z,14.97
2022-10-01T04:36:04.328Z,14.99
2022-10-01T04:38:30.859Z,14.98
2022-10-01T04:40:57.387Z,14.28
2022-10-01T04:43:24.270Z,14.50
2022-10-01T04:45:53.470Z,14.95
2022-10-01T04:48:20.088Z,15.25
2022-10-01T04:50:46.564Z,14.15
2022-10-01T04:53:13.103Z,14.64
2022-10-01T04:55:40.058Z,14.10
2022-10-01T04:58:06.644Z,14.54
2022-10-01T05:00:33.222Z,14.63
2022-10-01T05:02:59.751Z,14.55
2022-10-01T05:05:28.147Z,14.63
2022-10-01T05:07:55.051Z,13.86
2022-10-01T05:10:22.906Z,14.64
2022-10-01T05:12:51.672Z,14.47
2022-10-01T05:15:19.173Z,14.27
2022-10-01T05:17:46.679Z,14.35
2022-10-01T05:20:22.566Z,14.50
2022-10-01T05:22:49.568Z,14.10
2022-10-01T05:25:17.048Z,14.55
2022-10-01T05:27:43.751Z,13.45
2022-10-01T05:30:12.357Z,14.30
2022-10-01T05:32:39.388Z,14.05
2022-10-01T05:35:07.585Z,13.60
2022-10-01T05:37:34.959Z,14.23
2022-10-01T05:40:02.324Z,13.90
2022-10-01T05:42:28.860Z,14.37
2022-10-01T05:44:56.109Z,14.54
2022-10-01T05:47:22.931Z,14.58
2022-10-01T05:49:49.526Z,14.34
2022-10-01T05:52:16.698Z,14.71
2022-10-01T05:54:43.550Z,14.24
2022-10-01T05:57:10.678Z,14.31
2022-10-01T05:59:37.261Z,14.35
2022-10-01T06:02:04.417Z,13.85
2022-10-01T06:04:31.379Z,13.96
2022-10-01T06:06:58.189Z,14.17
2022-10-01T06:09:24.714Z,14.01
2022-10-01T06:11:51.603Z,13.80
2022-10-01T06:14:18.402Z,14.49
2022-10-01T06:16:44.978Z,13.56
2022-10-01T06:19:11.538Z,13.64
2022-10-01T06:21:38.226Z,13.75
2022-10-01T06:24:05.810Z,13.88
2022-10-01T06:26:32.358Z,14.00
2022-10-01T06:28:58.893Z,14.16
2022-10-01T06:31:25.532Z,13.68
2022-10-01T06:33:52.079Z,13.78
2022-10-01T06:36:18.793Z,14.02
2022-10-01T06:38:49.242Z,14.21
2022-10-01T06:41:15.801Z,13.55
2022-10-01T06:43:42.334Z,13.74
2022-10-01T06:46:08.941Z,13.76
2022-10-01T06:48:36.592Z,13.99
2022-10-01T06:51:03.699Z,13.96
2022-10-01T06:53:31.912Z,13.40
2022-10-01T06:56:04.158Z,13.75
2022-10-01T06:58:30.732Z,14.07
2022-10-01T07:01:02.124Z,14.29
2022-10-01T07:03:29.832Z,14.35
2022-10-01T07:06:02.862Z,14.64
2022-10-01T07:08:29.680Z,14.34
2022-10-01T07:11:02.927Z,14.62
2022-10-01T07:13:29.662Z,13.88
2022-10-01T07:15:56.346Z,13.86
2022-10-01T07:18:23.347Z,14.30
2022-10-01T07:20:49.827Z,13.99
2022-10-01T07:23:16.759Z,14.45
2022-10-01T07:25:43.709Z,14.16
2022-10-01T07:28:18.136Z,14.10
2022-10-01T07:31:12.205Z,14.08
2022-10-01T07:33:39.659Z,14.59
2022-10-01T07:36:07.794Z,14.57
2022-10-01T07:38:35.189Z,14.41
2022-10-01T07:41:05.102Z,13.42
2022-10-01T07:43:33.119Z,14.31
2022-10-01T07:46:00.264Z,14.23
2022-10-01T07:48:27.939Z,14.31
2022-10-01T07:50:54.522Z,14.15
2022-10-01T07:53:23.412Z,13.96
2022-10-01T07:55:50.012Z,14.32
2022-10-01T07:58:16.704Z,14.20
2022-10-01T08:00:43.505Z,14.16
2022-10-01T08:03:12.153Z,14.52
2022-10-01T08:05:41.295Z,13.90
2022-10-01T08:08:08.879Z,14.59
2022-10-01T08:10:37.991Z,14.56
2022-10-01T08:13:14.578Z,14.51
2022-10-01T08:15:46.973Z,14.81
2022-10-01T08:18:14.383Z,14.47
2022-10-01T08:20:41.806Z,14.58
2022-10-01T08:23:14.737Z,14.54
2022-10-01T08:25:43.143Z,14.46
2022-10-01T08:28:11.130Z,14.43
2022-10-01T08:30:42.347Z,14.52
2022-10-01T08:33:11.825Z,14.70
2022-10-01T08:35:40.372Z,14.41
2022-10-01T08:38:07.477Z,14.58
2022-10-01T08:40:38.568Z,14.11
2022-10-01T08:43:29.600Z,14.46
2022-10-01T08:46:01.007Z,14.82
2022-10-01T08:48:36.664Z,14.99
2022-10-01T08:51:28.936Z,14.86
2022-10-01T08:54:17.256Z,15.16
2022-10-01T08:56:46.420Z,14.80
2022-10-01T08:59:31.807Z,14.67
2022-10-01T09:01:59.261Z,15.04
2022-10-01T09:04:27.918Z,15.30
2022-10-01T09:07:17.478Z,15.09
2022-10-01T09:09:51.701Z,14.54
2022-10-01T09:12:47.559Z,14.37
2022-10-01T09:15:25.082Z,14.79
2022-10-01T09:18:20.222Z,15.11
2022-10-01T09:20:57.337Z,14.86
2022-10-01T09:23:28.602Z,15.26
2022-10-01T09:25:59.934Z,14.77
2022-10-01T09:28:34.874Z,15.20
2022-10-01T09:31:20.813Z,15.27
2022-10-01T09:34:28.921Z,15.24
2022-10-01T09:37:14.769Z,15.32
2022-10-01T09:40:01.634Z,15.52
2022-10-01T09:42:29.433Z,15.60
2022-10-01T09:44:57.869Z,15.51
2022-10-01T09:47:25.819Z,15.54
2022-10-01T09:49:52.535Z,15.65
2022-10-01T09:52:33.491Z,15.59
2022-10-01T09:55:05.207Z,15.61
2022-10-01T09:57:36.126Z,15.92
2022-10-01T10:00:29.919Z,16.29
2022-10-01T10:02:56.752Z,15.68
2022-10-01T10:05:25.812Z,15.93
2022-10-01T10:07:59.577Z,15.91
2022-10-01T10:10:35.523Z,15.91
2022-10-01T10:13:21.617Z,16.23
2022-10-01T10:15:56.449Z,15.13
2022-10-01T10:18:38.438Z,16.23
2022-10-01T10:21:14.430Z,16.20
2022-10-01T10:23:59.537Z,16.58
2022-10-01T10:26:35.223Z,16.66
2022-10-01T10:29:04.085Z,16.33
2022-10-01T10:31:47.162Z,16.54
2022-10-01T10:34:19.157Z,16.62
2022-10-01T10:36:49.795Z,16.86
2022-10-01T10:39:25.014Z,17.06
2022-10-01T10:41:53.422Z,17.29
2022-10-01T10:44:22.250Z,17.42
2022-10-01T10:46:52.138Z,17.09
2022-10-01T10:49:30.022Z,17.39
2022-10-01T10:52:01.011Z,17.14
2022-10-01T10:54:33.104Z,16.88
2022-10-01T10:57:02.869Z,17.43
2022-10-01T10:59:33.972Z,17.76
2022-10-01T11:02:08.194Z,18.05
2022-10-01T11:04:42.683Z,18.06
2022-10-01T11:07:11.587Z,18.35
2022-10-01T11:09:44.223Z,18.32
2022-10-01T11:13:03.456Z,18.20
2022-10-01T11:15:59.155Z,18.06
2022-10-01T11:18:48.160Z,18.53
2022-10-01T11:21:33.554Z,18.91
2022-10-01T11:24:03.022Z,18.90
2022-10-01T11:26:53.541Z,19.17
2022-10-01T11:29:40.683Z,19.25
2022-10-01T11:32:29.306Z,19.20
2022-10-01T11:35:50.419Z,19.11
2022-10-01T11:38:38.227Z,19.18
2022-10-01T11:41:26.735Z,19.07
2022-10-01T11:43:56.733Z,18.92
2022-10-01T11:46:23.344Z,19.45
2022-10-01T11:48:57.264Z,19.36
2022-10-01T11:51:29.179Z,19.40
2022-10-01T11:54:04.517Z,19.00
2022-10-01T11:56:54.508Z,19.23
2022-10-01T11:59:37.467Z,19.30
2022-10-01T12:02:16.671Z,19.73
2022-10-01T12:04:46.891Z,20.03
2022-10-01T12:07:21.663Z,20.20
2022-10-01T12:10:14.577Z,20.18
2022-10-01T12:13:07.400Z,20.41
2022-10-01T12:15:44.786Z,20.22
2022-10-01T12:18:15.756Z,20.12
2022-10-01T12:20:53.460Z,19.89
2022-10-01T12:23:23.425Z,19.69
2022-10-01T12:26:05.080Z,20.37
2022-10-01T12:28:53.625Z,20.48
2022-10-01T12:31:55.593Z,20.41
2022-10-01T12:35:11.423Z,19.78
2022-10-01T12:37:55.015Z,19.50
2022-10-01T12:40:26.495Z,20.15
2022-10-01T12:43:14.023Z,20.44
2022-10-01T12:46:06.259Z,20.21
2022-10-01T12:48:54.977Z,20.01
2022-10-01T12:51:27.488Z,20.04
2022-10-01T12:54:30.920Z,20.11
2022-10-01T12:57:05.662Z,20.34
2022-10-01T12:59:47.290Z,20.46
2022-10-01T13:02:53.883Z,20.32
2022-10-01T13:05:29.564Z,20.29
2022-10-01T13:08:18.170Z,19.90
2022-10-01T13:11:26.605Z,19.89
2022-10-01T13:13:54.918Z,19.73
2022-10-01T13:16:40.820Z,19.54
2022-10-01T13:19:19.728Z,19.45
2022-10-01T13:22:00.103Z,19.25
2022-10-01T13:24:38.920Z,19.14
2022-10-01T13:27:17.576Z,18.82
2022-10-01T13:29:43.968Z,17.75
2022-10-01T13:32:35.163Z,17.45
2022-10-01T13:35:23.046Z,17.24
2022-10-01T13:37:49.591Z,17.36
2022-10-01T13:40:35.386Z,17.30
2022-10-01T13:43:23.035Z,17.35
2022-10-01T13:45:52.117Z,17.50
2022-10-01T13:48:26.386Z,17.38
2022-10-01T13:51:05.092Z,17.51
2022-10-01T13:53:36.311Z,17.31
2022-10-01T13:56:04.200Z,17.48
2022-10-01T13:58:33.665Z,17.64
2022-10-01T14:01:04.225Z,17.61
2022-10-01T14:03:38.676Z,17.58
2022-10-01T14:06:08.311Z,17.62
2022-10-01T14:08:39.547Z,17.59
2022-10-01T14:11:31.487Z,17.60
2022-10-01T14:14:23.434Z,17.82
2022-10-01T14:16:50.062Z,17.91
2022-10-01T14:19:23.415Z,17.59
2022-10-01T14:22:08.146Z,17.24
2022-10-01T14:25:12.204Z,17.62
2022-10-01T14:28:06.746Z,17.75
2022-10-01T14:31:05.641Z,17.68
2022-10-01T14:33:59.624Z,17.75
2022-10-01T14:36:28.479Z,17.84
2022-10-01T14:39:18.599Z,17.98
2022-10-01T14:41:47.421Z,17.90
2022-10-01T14:44:19.234Z,17.90
2022-10-01T14:46:45.855Z,17.97
2022-10-01T14:49:21.502Z,17.81
2022-10-01T14:52:08.108Z,17.51
2022-10-01T14:55:02.278Z,17.70
2022-10-01T14:57:34.735Z,17.81
2022-10-01T15:00:08.661Z,17.88
2022-10-01T15:02:46.413Z,17.89
2022-10-01T15:05:30.153Z,18.04
2022-10-01T15:07:57.006Z,17.90
2022-10-01T15:10:28.026Z,17.83
2022-10-01T15:12:55.622Z,17.81
2022-10-01T15:15:39.640Z,17.38
2022-10-01T15:18:07.042Z,17.71
2022-10-01T15:20:34.809Z,17.79
2022-10-01T15:23:04.960Z,17.91
2022-10-01T15:25:32.414Z,18.31
2022-10-01T15:27:59.242Z,18.40
2022-10-01T15:30:27.669Z,18.26
2022-10-01T15:32:54.788Z,18.15
2022-10-01T15:35:23.550Z,18.09
2022-10-01T15:37:51.601Z,17.97
2022-10-01T15:40:30.672Z,18.16
2022-10-01T15:43:15.513Z,18.28
2022-10-01T15:45:42.521Z,18.21
2022-10-01T15:48:29.127Z,18.14
2022-10-01T15:51:01.455Z,18.26
2022-10-01T15:53:28.680Z,18.22
2022-10-01T15:55:59.048Z,18.26
2022-10-01T15:58:35.713Z,18.10
2022-10-01T16:01:12.205Z,17.97
2022-10-01T16:03:42.368Z,18.18
2022-10-01T16:06:23.670Z,18.21
2022-10-01T16:09:25.548Z,18.00
2022-10-01T16:11:56.848Z,18.00
2022-10-01T16:14:42.728Z,17.87
2022-10-01T16:17:18.315Z,17.76
2022-10-01T16:19:45.693Z,17.86
2022-10-01T16:22:33.051Z,17.91
2022-10-01T16:25:07.492Z,18.02
2022-10-01T16:27:43.979Z,18.04
2022-10-01T16:30:23.094Z,18.10
2022-10-01T16:32:50.689Z,17.92
2022-10-01T16:35:22.813Z,18.08
2022-10-01T16:37:51.327Z,17.89
2022-10-01T16:40:20.864Z,17.72
2022-10-01T16:42:50.535Z,17.74
2022-10-01T16:45:25.491Z,17.82
2022-10-01T16:47:54.613Z,17.84
2022-10-01T16:50:22.654Z,17.84
2022-10-01T16:52:55.983Z,17.81
2022-10-01T16:55:36.297Z,17.72
2022-10-01T16:58:04.540Z,17.34
2022-10-01T17:00:32.177Z,17.60
2022-10-01T17:03:02.295Z,17.37
2022-10-01T17:05:35.408Z,17.47
2022-10-01T17:08:03.522Z,17.42
2022-10-01T17:10:35.793Z,17.70
2022-10-01T17:13:03.669Z,17.79
2022-10-01T17:15:31.056Z,17.79
2022-10-01T17:17:58.883Z,17.43
2022-10-01T17:20:31.020Z,17.16
2022-10-01T17:22:58.503Z,16.98
2022-10-01T17:25:32.259Z,17.31
2022-10-01T17:28:01.148Z,17.10
2022-10-01T17:30:29.308Z,17.11
2022-10-01T17:32:57.136Z,17.62
2022-10-01T17:35:23.950Z,16.66
2022-10-01T17:37:50.515Z,16.50
2022-10-01T17:40:17.332Z,16.24
2022-10-01T17:42:44.030Z,16.38
2022-10-01T17:45:13.359Z,16.25
2022-10-01T17:47:45.362Z,16.13
2022-10-01T17:50:12.952Z,16.11
2022-10-01T17:52:39.699Z,16.17
2022-10-01T17:55:07.120Z,16.06
2022-10-01T17:57:34.274Z,16.23
2022-10-01T18:00:01.145Z,16.14
2022-10-01T18:02:41.549Z,16.70
2022-10-01T18:05:12.220Z,16.60
2022-10-01T18:07:39.232Z,16.61
2022-10-01T18:10:07.710Z,17.03
2022-10-01T18:12:34.566Z,16.75
2022-10-01T18:15:02.178Z,16.34
2022-10-01T18:17:32.093Z,16.11
2022-10-01T18:19:59.038Z,15.92
2022-10-01T18:22:29.628Z,16.06
2022-10-01T18:24:56.325Z,16.07
2022-10-01T18:27:22.961Z,16.26
2022-10-01T18:29:49.746Z,16.48
2022-10-01T18:32:36.714Z,16.19
2022-10-01T18:35:13.486Z,16.14
2022-10-01T18:38:07.902Z,16.47
2022-10-01T18:40:43.490Z,16.86
2022-10-01T18:43:21.823Z,16.84
2022-10-01T18:45:48.498Z,16.38
2022-10-01T18:48:30.786Z,16.78
2022-10-01T18:51:32.383Z,16.43
2022-10-01T18:54:20.800Z,16.93
2022-10-01T18:57:37.328Z,16.60
2022-10-01T19:00:09.552Z,16.84
2022-10-01T19:02:56.230Z,16.63
2022-10-01T19:05:48.364Z,16.31
2022-10-01T19:08:46.685Z,16.65
2022-10-01T19:11:40.154Z,16.10
2022-10-01T19:14:30.731Z,16.01
2022-10-01T19:17:06.174Z,16.83
2022-10-01T19:20:09.975Z,17.17
2022-10-01T19:22:42.295Z,16.97
2022-10-01T19:25:25.080Z,16.83
2022-10-01T19:28:16.653Z,16.55
2022-10-01T19:31:12.519Z,16.20
2022-10-01T19:33:46.737Z,16.30
2022-10-01T19:36:24.418Z,16.57
2022-10-01T19:38:53.863Z,16.84
2022-10-01T19:41:36.954Z,17.11
2022-10-01T19:44:15.273Z,17.07
2022-10-01T19:46:45.481Z,17.14
2022-10-01T19:49:20.769Z,16.64
2022-10-01T19:51:58.842Z,16.79
2022-10-01T19:54:38.814Z,16.81
2022-10-01T19:57:20.791Z,16.98
2022-10-01T19:59:47.788Z,16.96
2022-10-01T20:02:39.994Z,17.04
2022-10-01T20:05:21.979Z,16.63
2022-10-01T20:08:05.650Z,17.09
2022-10-01T20:10:50.127Z,16.83
2022-10-01T20:13:47.656Z,16.83
2022-10-01T20:16:27.223Z,16.59
2022-10-01T20:19:04.575Z,16.83
2022-10-01T20:21:40.075Z,16.43
2022-10-01T20:24:36.964Z,16.27
2022-10-01T20:27:37.631Z,16.43
2022-10-01T20:30:21.265Z,16.70
2022-10-01T20:33:21.330Z,16.85
2022-10-01T20:36:01.791Z,16.84
2022-10-01T20:38:35.272Z,16.89
2022-10-01T20:41:09.499Z,17.05
2022-10-01T20:43:37.982Z,16.87
2022-10-01T20:46:11.964Z,16.10
2022-10-01T20:48:43.934Z,16.38
2022-10-01T20:51:17.225Z,16.69
2022-10-01T20:53:53.775Z,16.88
2022-10-01T20:56:30.865Z,16.51
2022-10-01T20:59:23.463Z,16.51
2022-10-01T21:02:02.914Z,16.31
2022-10-01T21:04:37.609Z,16.15
2022-10-01T21:07:19.438Z,16.83
2022-10-01T21:09:48.868Z,16.63
2022-10-01T21:12:29.589Z,16.92
2022-10-01T21:14:57.209Z,16.73
2022-10-01T21:17:49.059Z,16.72
2022-10-01T21:20:38.829Z,16.43
2022-10-01T21:23:12.666Z,16.23
2022-10-01T21:26:02.219Z,16.37
2022-10-01T21:28:56.192Z,16.39
2022-10-01T21:31:41.766Z,16.87
2022-10-01T21:34:39.701Z,15.94
2022-10-01T21:37:21.230Z,15.89
2022-10-01T21:40:10.384Z,16.51
2022-10-01T21:42:42.871Z,16.77
2022-10-01T21:45:57.994Z,16.22
2022-10-01T21:48:53.392Z,16.37
2022-10-01T21:51:28.463Z,16.54
2022-10-01T21:54:18.338Z,16.74
2022-10-01T21:57:28.441Z,16.59
2022-10-01T22:00:12.004Z,16.54
2022-10-01T22:03:10.546Z,16.70
2022-10-01T22:05:37.294Z,16.62
2022-10-01T22:08:27.726Z,16.82
2022-10-01T22:11:02.709Z,16.92
2022-10-01T22:13:38.970Z,16.48
2022-10-01T22:16:13.715Z,16.24
2022-10-01T22:18:52.831Z,16.18
2022-10-01T22:21:35.417Z,16.06
2022-10-01T22:24:07.404Z,16.19
2022-10-01T22:26:39.649Z,16.24
2022-10-01T22:29:14.564Z,16.20
2022-10-01T22:31:44.544Z,16.43
2022-10-01T22:34:20.353Z,16.17
2022-10-01T22:37:00.106Z,16.09
2022-10-01T22:39:31.833Z,16.19
2022-10-01T22:42:05.211Z,16.27
2022-10-01T22:44:31.778Z,16.15
2022-10-01T22:47:24.574Z,16.19
2022-10-01T22:49:54.015Z,16.28
2022-10-01T22:52:45.244Z,15.87
2022-10-01T22:55:30.699Z,16.26
2022-10-01T22:57:57.333Z,16.39
2022-10-01T23:00:24.169Z,15.91
2022-10-01T23:03:21.925Z,15.76
2022-10-01T23:06:01.857Z,15.97
2022-10-01T23:08:31.199Z,15.62
2022-10-01T23:11:03.751Z,15.58
2022-10-01T23:13:33.232Z,15.59
2022-10-01T23:16:09.411Z,15.77
2022-10-01T23:18:48.069Z,15.25
2022-10-01T23:21:28.054Z,15.17
2022-10-01T23:24:20.896Z,14.76
2022-10-01T23:27:03.287Z,15.18
2022-10-01T23:29:52.814Z,15.45
2022-10-01T23:32:31.593Z,15.46
2022-10-01T23:35:14.792Z,15.16
2022-10-01T23:38:09.211Z,14.96
2022-10-01T23:40:41.762Z,14.99
2022-10-01T23:43:33.059Z,15.02
2022-10-01T23:46:11.319Z,15.49
2022-10-01T23:49:04.745Z,15.44
2022-10-01T23:51:37.871Z,14.95
2022-10-01T23:54:44.595Z,15.43
2022-10-01T23:57:32.097Z,15.68
